sensor_id;sensor_type;location;lat;lon;timestamp;pressure;altitude;pressure_sealevel;temperature;humidity
56719;BME280;42597;40.636;0.278;2023-05-07T00:01:36;97145.31;;;20.50;41.88
56719;BME280;42597;40.636;0.278;2023-05-07T00:04:02;97145.38;;;20.43;42.70
56719;BME280;42597;40.636;0.278;2023-05-07T00:06:29;97149.47;;;20.28;43.21
56719;BME280;42597;40.636;0.278;2023-05-07T00:08:55;97138.75;;;20.06;43.75
56719;BME280;42597;40.636;0.278;2023-05-07T00:11:21;97142.44;;;19.89;43.75
56719;BME280;42597;40.636;0.278;2023-05-07T00:13:47;97143.91;;;19.97;42.26
56719;BME280;42597;40.636;0.278;2023-05-07T00:16:13;97157.78;;;20.20;41.97
56719;BME280;42597;40.636;0.278;2023-05-07T00:18:39;97166.13;;;20.10;42.70
56719;BME280;42597;40.636;0.278;2023-05-07T00:21:04;97150.25;;;20.28;42.75
56719;BME280;42597;40.636;0.278;2023-05-07T00:23:30;97142.00;;;19.49;43.79
56719;BME280;42597;40.636;0.278;2023-05-07T00:25:56;97147.91;;;20.30;49.11
56719;BME280;42597;40.636;0.278;2023-05-07T00:28:21;97155.00;;;20.89;51.87
56719;BME280;42597;40.636;0.278;2023-05-07T00:30:47;97160.16;;;20.87;48.88
56719;BME280;42597;40.636;0.278;2023-05-07T00:33:12;97156.03;;;19.58;44.76
56719;BME280;42597;40.636;0.278;2023-05-07T00:35:38;97150.91;;;19.64;44.13
56719;BME280;42597;40.636;0.278;2023-05-07T00:38:03;97159.59;;;20.34;50.00
56719;BME280;42597;40.636;0.278;2023-05-07T00:40:29;97159.97;;;20.70;51.44
56719;BME280;42597;40.636;0.278;2023-05-07T00:42:55;97157.31;;;20.26;44.90
56719;BME280;42597;40.636;0.278;2023-05-07T00:45:26;97153.09;;;20.17;42.17
56719;BME280;42597;40.636;0.278;2023-05-07T00:47:54;97157.00;;;19.82;42.62
56719;BME280;42597;40.636;0.278;2023-05-07T00:50:20;97156.34;;;19.67;43.04
56719;BME280;42597;40.636;0.278;2023-05-07T00:52:46;97163.31;;;19.79;43.20
56719;BME280;42597;40.636;0.278;2023-05-07T00:55:12;97160.25;;;19.70;43.44
56719;BME280;42597;40.636;0.278;2023-05-07T00:57:41;97167.47;;;19.46;43.85
56719;BME280;42597;40.636;0.278;2023-05-07T01:00:08;97172.22;;;19.38;43.45
56719;BME280;42597;40.636;0.278;2023-05-07T01:02:35;97180.75;;;19.47;42.61
56719;BME280;42597;40.636;0.278;2023-05-07T01:05:02;97179.25;;;19.43;43.10
56719;BME280;42597;40.636;0.278;2023-05-07T01:07:31;97168.31;;;19.36;43.40
56719;BME280;42597;40.636;0.278;2023-05-07T01:09:58;97169.91;;;19.33;43.64
56719;BME280;42597;40.636;0.278;2023-05-07T01:12:24;97166.88;;;19.20;43.99
56719;BME280;42597;40.636;0.278;2023-05-07T01:14:50;97173.06;;;19.28;42.99
56719;BME280;42597;40.636;0.278;2023-05-07T01:17:16;97171.41;;;19.41;43.19
56719;BME280;42597;40.636;0.278;2023-05-07T01:19:42;97172.72;;;19.22;41.16
56719;BME280;42597;40.636;0.278;2023-05-07T01:22:10;97172.81;;;19.67;43.67
56719;BME280;42597;40.636;0.278;2023-05-07T01:24:36;97173.31;;;19.48;41.11
56719;BME280;42597;40.636;0.278;2023-05-07T01:27:03;97168.50;;;19.11;41.64
56719;BME280;42597;40.636;0.278;2023-05-07T01:29:29;97171.88;;;19.81;47.94
56719;BME280;42597;40.636;0.278;2023-05-07T01:31:59;97163.19;;;20.28;52.15
56719;BME280;42597;40.636;0.278;2023-05-07T01:34:26;97160.78;;;20.67;51.86
56719;BME280;42597;40.636;0.278;2023-05-07T01:36:54;97172.78;;;20.81;48.95
56719;BME280;42597;40.636;0.278;2023-05-07T01:39:24;97167.38;;;20.02;43.05
56719;BME280;42597;40.636;0.278;2023-05-07T01:41:50;97168.03;;;19.23;41.93
56719;BME280;42597;40.636;0.278;2023-05-07T01:44:16;97165.44;;;20.02;48.77
56719;BME280;42597;40.636;0.278;2023-05-07T01:46:43;97162.16;;;20.83;52.68
56719;BME280;42597;40.636;0.278;2023-05-07T01:49:09;97161.78;;;20.50;50.86
56719;BME280;42597;40.636;0.278;2023-05-07T01:51:36;97163.84;;;19.01;40.30
56719;BME280;42597;40.636;0.278;2023-05-07T01:54:01;97172.72;;;18.45;40.69
56719;BME280;42597;40.636;0.278;2023-05-07T01:56:27;97165.81;;;19.04;45.45
56719;BME280;42597;40.636;0.278;2023-05-07T01:58:52;97167.00;;;19.58;41.58
56719;BME280;42597;40.636;0.278;2023-05-07T02:01:18;97158.75;;;19.58;40.72
56719;BME280;42597;40.636;0.278;2023-05-07T02:03:44;97159.06;;;19.15;41.72
56719;BME280;42597;40.636;0.278;2023-05-07T02:06:10;97162.44;;;19.37;42.91
56719;BME280;42597;40.636;0.278;2023-05-07T02:08:35;97150.94;;;19.53;40.50
56719;BME280;42597;40.636;0.278;2023-05-07T02:11:01;97152.56;;;19.51;40.53
56719;BME280;42597;40.636;0.278;2023-05-07T02:13:30;97149.91;;;19.40;40.49
56719;BME280;42597;40.636;0.278;2023-05-07T02:15:55;97153.34;;;18.92;41.09
56719;BME280;42597;40.636;0.278;2023-05-07T02:18:21;97146.31;;;19.50;43.98
56719;BME280;42597;40.636;0.278;2023-05-07T02:20:47;97146.66;;;19.00;42.50
56719;BME280;42597;40.636;0.278;2023-05-07T02:23:12;97151.44;;;19.41;43.25
56719;BME280;42597;40.636;0.278;2023-05-07T02:25:38;97152.09;;;19.07;44.66
56719;BME280;42597;40.636;0.278;2023-05-07T02:28:03;97156.31;;;19.19;46.91
56719;BME280;42597;40.636;0.278;2023-05-07T02:30:29;97152.56;;;18.95;49.10
56719;BME280;42597;40.636;0.278;2023-05-07T02:32:54;97150.66;;;18.85;50.65
56719;BME280;42597;40.636;0.278;2023-05-07T02:35:20;97162.75;;;18.91;51.91
56719;BME280;42597;40.636;0.278;2023-05-07T02:37:45;97148.41;;;18.65;54.50
56719;BME280;42597;40.636;0.278;2023-05-07T02:40:11;97154.06;;;19.03;52.78
56719;BME280;42597;40.636;0.278;2023-05-07T02:42:37;97147.66;;;18.58;52.88
56719;BME280;42597;40.636;0.278;2023-05-07T02:45:03;97151.41;;;18.89;50.52
56719;BME280;42597;40.636;0.278;2023-05-07T02:47:29;97144.47;;;18.66;50.70
56719;BME280;42597;40.636;0.278;2023-05-07T02:49:55;97148.38;;;18.72;48.76
56719;BME280;42597;40.636;0.278;2023-05-07T02:52:21;97152.09;;;18.19;47.95
56719;BME280;42597;40.636;0.278;2023-05-07T02:54:46;97134.44;;;18.38;47.76
56719;BME280;42597;40.636;0.278;2023-05-07T02:57:12;97139.81;;;18.60;46.60
56719;BME280;42597;40.636;0.278;2023-05-07T02:59:38;97140.16;;;18.69;47.93
56719;BME280;42597;40.636;0.278;2023-05-07T03:02:03;97134.31;;;18.63;46.71
56719;BME280;42597;40.636;0.278;2023-05-07T03:04:29;97124.84;;;18.86;47.57
56719;BME280;42597;40.636;0.278;2023-05-07T03:06:55;97142.22;;;18.47;47.84
56719;BME280;42597;40.636;0.278;2023-05-07T03:09:21;97146.91;;;18.50;47.24
56719;BME280;42597;40.636;0.278;2023-05-07T03:11:47;97160.97;;;18.45;47.58
56719;BME280;42597;40.636;0.278;2023-05-07T03:14:13;97153.25;;;18.22;48.16
56719;BME280;42597;40.636;0.278;2023-05-07T03:16:40;97153.25;;;18.29;47.68
56719;BME280;42597;40.636;0.278;2023-05-07T03:19:05;97157.97;;;18.18;48.13
56719;BME280;42597;40.636;0.278;2023-05-07T03:21:31;97154.63;;;18.73;49.07
56719;BME280;42597;40.636;0.278;2023-05-07T03:23:59;97152.41;;;18.39;47.82
56719;BME280;42597;40.636;0.278;2023-05-07T03:26:24;97153.47;;;18.63;48.53
56719;BME280;42597;40.636;0.278;2023-05-07T03:28:51;97157.09;;;18.39;47.74
56719;BME280;42597;40.636;0.278;2023-05-07T03:31:17;97156.22;;;18.60;50.78
56719;BME280;42597;40.636;0.278;2023-05-07T03:33:51;97157.75;;;18.64;52.70
56719;BME280;42597;40.636;0.278;2023-05-07T03:36:17;97166.94;;;18.22;58.97
56719;BME280;42597;40.636;0.278;2023-05-07T03:38:43;97172.75;;;18.35;59.75
56719;BME280;42597;40.636;0.278;2023-05-07T03:41:09;97173.63;;;18.03;65.04
56719;BME280;42597;40.636;0.278;2023-05-07T03:43:34;97170.50;;;17.51;70.27
56719;BME280;42597;40.636;0.278;2023-05-07T03:46:00;97165.81;;;17.30;76.65
56719;BME280;42597;40.636;0.278;2023-05-07T03:48:26;97164.28;;;17.54;81.67
56719;BME280;42597;40.636;0.278;2023-05-07T03:50:52;97160.75;;;17.64;82.73
56719;BME280;42597;40.636;0.278;2023-05-07T03:53:17;97159.59;;;17.65;84.62
56719;BME280;42597;40.636;0.278;2023-05-07T03:55:43;97156.44;;;17.70;85.70
56719;BME280;42597;40.636;0.278;2023-05-07T03:58:09;97164.28;;;17.83;86.25
56719;BME280;42597;40.636;0.278;2023-05-07T04:00:35;97168.16;;;18.03;83.68
56719;BME280;42597;40.636;0.278;2023-05-07T04:03:04;97160.31;;;18.12;84.66
56719;BME280;42597;40.636;0.278;2023-05-07T04:05:30;97161.91;;;18.06;84.52
56719;BME280;42597;40.636;0.278;2023-05-07T04:07:58;97168.06;;;18.35;81.66
56719;BME280;42597;40.636;0.278;2023-05-07T04:10:24;97170.44;;;18.22;84.23
56719;BME280;42597;40.636;0.278;2023-05-07T04:12:50;97167.41;;;17.49;90.97
56719;BME280;42597;40.636;0.278;2023-05-07T04:15:16;97173.66;;;17.82;89.80
56719;BME280;42597;40.636;0.278;2023-05-07T04:17:41;97170.34;;;18.47;82.53
56719;BME280;42597;40.636;0.278;2023-05-07T04:20:13;97169.56;;;18.47;84.87
56719;BME280;42597;40.636;0.278;2023-05-07T04:22:39;97169.63;;;18.33;88.46
56719;BME280;42597;40.636;0.278;2023-05-07T04:25:06;97171.09;;;18.55;84.54
56719;BME280;42597;40.636;0.278;2023-05-07T04:27:32;97172.97;;;19.42;74.92
56719;BME280;42597;40.636;0.278;2023-05-07T04:29:57;97183.59;;;18.70;83.84
56719;BME280;42597;40.636;0.278;2023-05-07T04:32:23;97189.06;;;18.63;85.23
56719;BME280;42597;40.636;0.278;2023-05-07T04:34:50;97200.78;;;18.74;83.49
56719;BME280;42597;40.636;0.278;2023-05-07T04:37:16;97209.16;;;17.53;97.20
56719;BME280;42597;40.636;0.278;2023-05-07T04:39:42;97218.13;;;17.43;100.00
56719;BME280;42597;40.636;0.278;2023-05-07T04:42:08;97228.63;;;17.23;100.00
56719;BME280;42597;40.636;0.278;2023-05-07T04:44:34;97224.34;;;17.33;100.00
56719;BME280;42597;40.636;0.278;2023-05-07T04:47:02;97218.09;;;17.21;100.00
56719;BME280;42597;40.636;0.278;2023-05-07T04:49:28;97212.59;;;17.07;100.00
56719;BME280;42597;40.636;0.278;2023-05-07T04:51:54;97209.06;;;17.03;100.00
56719;BME280;42597;40.636;0.278;2023-05-07T04:54:19;97215.00;;;17.66;100.00
56719;BME280;42597;40.636;0.278;2023-05-07T04:56:45;97211.50;;;17.58;100.00
56719;BME280;42597;40.636;0.278;2023-05-07T04:59:11;97216.13;;;18.33;91.50
56719;BME280;42597;40.636;0.278;2023-05-07T05:01:37;97223.63;;;17.82;99.00
56719;BME280;42597;40.636;0.278;2023-05-07T05:04:02;97217.34;;;17.60;100.00
56719;BME280;42597;40.636;0.278;2023-05-07T05:06:28;97220.50;;;17.91;92.14
56719;BME280;42597;40.636;0.278;2023-05-07T05:08:54;97229.81;;;17.68;88.38
56719;BME280;42597;40.636;0.278;2023-05-07T05:11:20;97232.53;;;17.36;100.00
56719;BME280;42597;40.636;0.278;2023-05-07T05:13:46;97232.94;;;17.35;100.00
56719;BME280;42597;40.636;0.278;2023-05-07T05:16:14;97239.91;;;17.14;100.00
56719;BME280;42597;40.636;0.278;2023-05-07T05:18:41;97231.31;;;17.12;100.00
56719;BME280;42597;40.636;0.278;2023-05-07T05:21:07;97245.00;;;17.23;100.00
56719;BME280;42597;40.636;0.278;2023-05-07T05:23:33;97244.66;;;17.57;100.00
56719;BME280;42597;40.636;0.278;2023-05-07T05:25:59;97245.88;;;17.81;100.00
56719;BME280;42597;40.636;0.278;2023-05-07T05:28:24;97254.75;;;17.13;100.00
56719;BME280;42597;40.636;0.278;2023-05-07T05:30:50;97251.66;;;17.36;100.00
56719;BME280;42597;40.636;0.278;2023-05-07T05:33:16;97253.69;;;17.82;99.59
56719;BME280;42597;40.636;0.278;2023-05-07T05:35:42;97266.56;;;17.74;99.36
56719;BME280;42597;40.636;0.278;2023-05-07T05:38:08;97271.19;;;17.56;100.00
56719;BME280;42597;40.636;0.278;2023-05-07T05:40:34;97263.47;;;18.01;96.52
56719;BME280;42597;40.636;0.278;2023-05-07T05:43:00;97272.75;;;17.61;98.91
56719;BME280;42597;40.636;0.278;2023-05-07T05:45:26;97275.94;;;17.88;95.79
56719;BME280;42597;40.636;0.278;2023-05-07T05:47:51;97276.72;;;18.13;93.07
56719;BME280;42597;40.636;0.278;2023-05-07T05:50:17;97290.00;;;17.83;93.97
56719;BME280;42597;40.636;0.278;2023-05-07T05:52:43;97289.56;;;17.59;95.92
56719;BME280;42597;40.636;0.278;2023-05-07T05:55:09;97286.00;;;17.34;98.20
56719;BME280;42597;40.636;0.278;2023-05-07T05:57:35;97295.78;;;17.42;97.82
56719;BME280;42597;40.636;0.278;2023-05-07T06:00:02;97297.00;;;17.73;95.48
56719;BME280;42597;40.636;0.278;2023-05-07T06:02:28;97298.59;;;17.92;93.18
56719;BME280;42597;40.636;0.278;2023-05-07T06:04:54;97306.41;;;18.25;88.70
56719;BME280;42597;40.636;0.278;2023-05-07T06:07:19;97316.94;;;18.31;88.87
56719;BME280;42597;40.636;0.278;2023-05-07T06:09:45;97318.88;;;17.84;93.59
56719;BME280;42597;40.636;0.278;2023-05-07T06:12:11;97314.59;;;18.08;90.51
56719;BME280;42597;40.636;0.278;2023-05-07T06:14:37;97323.59;;;18.01;88.79
56719;BME280;42597;40.636;0.278;2023-05-07T06:17:03;97331.81;;;17.97;86.81
56719;BME280;42597;40.636;0.278;2023-05-07T06:19:29;97324.38;;;17.94;84.26
56719;BME280;42597;40.636;0.278;2023-05-07T06:21:55;97331.41;;;18.35;83.46
56719;BME280;42597;40.636;0.278;2023-05-07T06:24:24;97339.22;;;18.15;83.87
56719;BME280;42597;40.636;0.278;2023-05-07T06:26:50;97348.63;;;18.17;83.28
56719;BME280;42597;40.636;0.278;2023-05-07T06:29:15;97352.88;;;18.00;83.16
56719;BME280;42597;40.636;0.278;2023-05-07T06:31:41;97357.19;;;18.12;80.99
56719;BME280;42597;40.636;0.278;2023-05-07T06:34:07;97365.38;;;18.12;81.40
56719;BME280;42597;40.636;0.278;2023-05-07T06:36:33;97369.69;;;18.20;81.10
56719;BME280;42597;40.636;0.278;2023-05-07T06:38:59;97362.28;;;18.17;82.57
56719;BME280;42597;40.636;0.278;2023-05-07T06:41:25;97365.75;;;18.00;81.78
56719;BME280;42597;40.636;0.278;2023-05-07T06:43:51;97364.59;;;18.08;78.80
56719;BME280;42597;40.636;0.278;2023-05-07T06:46:17;97370.84;;;18.12;78.76
56719;BME280;42597;40.636;0.278;2023-05-07T06:48:42;97364.59;;;18.40;76.79
56719;BME280;42597;40.636;0.278;2023-05-07T06:51:08;97375.19;;;18.42;78.06
56719;BME280;42597;40.636;0.278;2023-05-07T06:53:35;97377.09;;;18.16;78.81
56719;BME280;42597;40.636;0.278;2023-05-07T06:56:01;97381.41;;;18.24;77.08
56719;BME280;42597;40.636;0.278;2023-05-07T06:58:26;97388.06;;;18.38;77.79
56719;BME280;42597;40.636;0.278;2023-05-07T07:00:52;97391.97;;;18.58;78.24
56719;BME280;42597;40.636;0.278;2023-05-07T07:03:18;97399.00;;;18.45;80.07
56719;BME280;42597;40.636;0.278;2023-05-07T07:05:44;97394.72;;;18.44;81.02
56719;BME280;42597;40.636;0.278;2023-05-07T07:08:10;97398.59;;;18.57;81.05
56719;BME280;42597;40.636;0.278;2023-05-07T07:10:36;97407.22;;;18.59;81.78
56719;BME280;42597;40.636;0.278;2023-05-07T07:13:02;97410.31;;;18.61;81.72
56719;BME280;42597;40.636;0.278;2023-05-07T07:15:28;97416.59;;;18.51;81.07
56719;BME280;42597;40.636;0.278;2023-05-07T07:17:53;97413.88;;;18.65;81.14
56719;BME280;42597;40.636;0.278;2023-05-07T07:20:19;97404.09;;;18.50;79.39
56719;BME280;42597;40.636;0.278;2023-05-07T07:22:45;97399.81;;;18.70;78.79
56719;BME280;42597;40.636;0.278;2023-05-07T07:25:11;97402.84;;;19.19;75.82
56719;BME280;42597;40.636;0.278;2023-05-07T07:27:37;97397.06;;;18.74;76.53
56719;BME280;42597;40.636;0.278;2023-05-07T07:30:03;97389.94;;;19.09;75.14
56719;BME280;42597;40.636;0.278;2023-05-07T07:32:29;97401.34;;;18.68;75.78
56719;BME280;42597;40.636;0.278;2023-05-07T07:34:55;97400.19;;;18.62;75.63
56719;BME280;42597;40.636;0.278;2023-05-07T07:37:21;97411.13;;;18.94;75.17
56719;BME280;42597;40.636;0.278;2023-05-07T07:39:47;97406.81;;;18.93;75.73
56719;BME280;42597;40.636;0.278;2023-05-07T07:42:13;97418.19;;;18.70;77.72
56719;BME280;42597;40.636;0.278;2023-05-07T07:44:38;97410.34;;;18.83;74.57
56719;BME280;42597;40.636;0.278;2023-05-07T07:47:05;97413.44;;;18.99;74.68
56719;BME280;42597;40.636;0.278;2023-05-07T07:49:31;97419.31;;;19.01;75.90
56719;BME280;42597;40.636;0.278;2023-05-07T07:51:57;97419.63;;;19.24;74.85
56719;BME280;42597;40.636;0.278;2023-05-07T07:54:24;97423.22;;;19.14;74.67
56719;BME280;42597;40.636;0.278;2023-05-07T07:56:50;97418.06;;;19.34;73.99
56719;BME280;42597;40.636;0.278;2023-05-07T07:59:16;97417.22;;;19.48;73.02
56719;BME280;42597;40.636;0.278;2023-05-07T08:01:44;97423.53;;;19.38;73.44
56719;BME280;42597;40.636;0.278;2023-05-07T08:04:10;97425.00;;;19.53;71.82
56719;BME280;42597;40.636;0.278;2023-05-07T08:06:36;97425.88;;;19.36;72.52
56719;BME280;42597;40.636;0.278;2023-05-07T08:09:03;97427.41;;;19.47;72.06
56719;BME280;42597;40.636;0.278;2023-05-07T08:11:29;97425.78;;;19.54;71.00
56719;BME280;42597;40.636;0.278;2023-05-07T08:13:55;97421.94;;;19.44;70.78
56719;BME280;42597;40.636;0.278;2023-05-07T08:16:21;97424.66;;;19.44;70.45
56719;BME280;42597;40.636;0.278;2023-05-07T08:18:47;97434.94;;;19.18;69.61
56719;BME280;42597;40.636;0.278;2023-05-07T08:21:12;97434.44;;;19.45;70.24
56719;BME280;42597;40.636;0.278;2023-05-07T08:23:38;97438.34;;;19.55;70.24
56719;BME280;42597;40.636;0.278;2023-05-07T08:26:04;97447.78;;;19.36;69.92
56719;BME280;42597;40.636;0.278;2023-05-07T08:28:30;97441.50;;;19.46;69.69
56719;BME280;42597;40.636;0.278;2023-05-07T08:30:56;97439.91;;;19.52;69.47
56719;BME280;42597;40.636;0.278;2023-05-07T08:33:26;97441.84;;;19.59;67.10
56719;BME280;42597;40.636;0.278;2023-05-07T08:35:52;97448.13;;;19.52;67.90
56719;BME280;42597;40.636;0.278;2023-05-07T08:38:18;97447.78;;;19.46;67.17
56719;BME280;42597;40.636;0.278;2023-05-07T08:40:43;97454.78;;;19.55;67.25
56719;BME280;42597;40.636;0.278;2023-05-07T08:43:12;97453.94;;;19.76;70.23
56719;BME280;42597;40.636;0.278;2023-05-07T08:45:39;97458.63;;;19.79;71.74
56719;BME280;42597;40.636;0.278;2023-05-07T08:48:09;97461.78;;;19.73;72.98
56719;BME280;42597;40.636;0.278;2023-05-07T08:50:36;97476.22;;;19.85;70.63
56719;BME280;42597;40.636;0.278;2023-05-07T08:53:05;97474.22;;;19.96;69.50
56719;BME280;42597;40.636;0.278;2023-05-07T08:55:31;97473.44;;;19.92;71.03
56719;BME280;42597;40.636;0.278;2023-05-07T08:57:56;97476.66;;;19.72;73.11
56719;BME280;42597;40.636;0.278;2023-05-07T09:00:22;97478.19;;;19.81;73.45
56719;BME280;42597;40.636;0.278;2023-05-07T09:02:48;97477.78;;;19.86;74.43
56719;BME280;42597;40.636;0.278;2023-05-07T09:05:14;97472.66;;;19.95;73.97
56719;BME280;42597;40.636;0.278;2023-05-07T09:07:40;97489.91;;;19.92;73.97
56719;BME280;42597;40.636;0.278;2023-05-07T09:10:06;97493.84;;;19.91;73.03
56719;BME280;42597;40.636;0.278;2023-05-07T09:12:32;97498.16;;;19.88;72.53
56719;BME280;42597;40.636;0.278;2023-05-07T09:15:00;97499.34;;;19.84;71.76
56719;BME280;42597;40.636;0.278;2023-05-07T09:17:28;97491.47;;;19.86;71.66
56719;BME280;42597;40.636;0.278;2023-05-07T09:19:54;97493.41;;;19.96;72.21
56719;BME280;42597;40.636;0.278;2023-05-07T09:22:19;97492.31;;;19.76;71.83
56719;BME280;42597;40.636;0.278;2023-05-07T09:24:48;97496.22;;;19.82;70.12
56719;BME280;42597;40.636;0.278;2023-05-07T09:27:14;97492.53;;;20.17;69.09
56719;BME280;42597;40.636;0.278;2023-05-07T09:29:41;97496.91;;;20.00;69.50
56719;BME280;42597;40.636;0.278;2023-05-07T09:32:08;97498.09;;;19.99;69.78
56719;BME280;42597;40.636;0.278;2023-05-07T09:34:34;97493.69;;;20.19;68.58
56719;BME280;42597;40.636;0.278;2023-05-07T09:37:02;97492.97;;;20.08;68.62
56719;BME280;42597;40.636;0.278;2023-05-07T09:42:06;97492.94;;;20.15;69.38
56719;BME280;42597;40.636;0.278;2023-05-07T09:44:33;97484.97;;;20.39;67.63
56719;BME280;42597;40.636;0.278;2023-05-07T09:47:00;97479.47;;;20.39;67.70
56719;BME280;42597;40.636;0.278;2023-05-07T09:49:29;97481.81;;;20.37;67.25
56719;BME280;42597;40.636;0.278;2023-05-07T09:52:00;97474.84;;;20.25;67.93
56719;BME280;42597;40.636;0.278;2023-05-07T09:54:26;97480.28;;;20.32;67.94
56719;BME280;42597;40.636;0.278;2023-05-07T09:56:55;97476.00;;;20.28;67.61
56719;BME280;42597;40.636;0.278;2023-05-07T09:59:21;97466.81;;;20.56;66.87
56719;BME280;42597;40.636;0.278;2023-05-07T10:01:48;97461.63;;;20.68;65.71
56719;BME280;42597;40.636;0.278;2023-05-07T10:04:14;97470.78;;;20.48;66.90
56719;BME280;42597;40.636;0.278;2023-05-07T10:06:41;97462.56;;;20.51;66.85
56719;BME280;42597;40.636;0.278;2023-05-07T10:09:08;97461.19;;;20.74;66.19
56719;BME280;42597;40.636;0.278;2023-05-07T10:11:35;97474.69;;;20.50;66.77
56719;BME280;42597;40.636;0.278;2023-05-07T10:14:04;97459.28;;;20.67;65.52
56719;BME280;42597;40.636;0.278;2023-05-07T10:16:34;97466.81;;;20.59;65.02
56719;BME280;42597;40.636;0.278;2023-05-07T10:19:05;97462.63;;;20.89;64.33
56719;BME280;42597;40.636;0.278;2023-05-07T10:21:35;97454.81;;;20.87;64.39
56719;BME280;42597;40.636;0.278;2023-05-07T10:24:10;97454.03;;;20.87;63.45
56719;BME280;42597;40.636;0.278;2023-05-07T10:26:42;97458.06;;;20.72;63.62
56719;BME280;42597;40.636;0.278;2023-05-07T10:29:45;97459.28;;;20.67;63.57
56719;BME280;42597;40.636;0.278;2023-05-07T10:32:35;97450.78;;;20.99;63.11
56719;BME280;42597;40.636;0.278;2023-05-07T10:35:06;97461.63;;;21.13;61.84
56719;BME280;42597;40.636;0.278;2023-05-07T10:37:32;97455.31;;;21.16;61.81
56719;BME280;42597;40.636;0.278;2023-05-07T10:39:59;97464.28;;;21.20;60.53
56719;BME280;42597;40.636;0.278;2023-05-07T10:42:25;97459.13;;;21.26;60.39
56719;BME280;42597;40.636;0.278;2023-05-07T10:44:51;97444.13;;;21.34;60.38
56719;BME280;42597;40.636;0.278;2023-05-07T10:47:17;97453.88;;;21.42;59.24
56719;BME280;42597;40.636;0.278;2023-05-07T10:52:13;97458.78;;;21.58;57.33
56719;BME280;42597;40.636;0.278;2023-05-07T10:54:40;97459.78;;;21.75;57.95
56719;BME280;42597;40.636;0.278;2023-05-07T10:57:38;97458.91;;;21.51;56.51
56719;BME280;42597;40.636;0.278;2023-05-07T11:05:33;97452.00;;;21.36;55.60
56719;BME280;42597;40.636;0.278;2023-05-07T11:08:03;97453.88;;;21.77;56.14
56719;BME280;42597;40.636;0.278;2023-05-07T11:13:40;97448.19;;;21.91;55.17
56719;BME280;42597;40.636;0.278;2023-05-07T11:16:19;97449.03;;;21.88;53.80
56719;BME280;42597;40.636;0.278;2023-05-07T11:18:49;97449.03;;;21.88;52.23
56719;BME280;42597;40.636;0.278;2023-05-07T11:24:01;97442.03;;;22.10;52.42
56719;BME280;42597;40.636;0.278;2023-05-07T11:26:29;97441.59;;;22.15;53.87
56719;BME280;42597;40.636;0.278;2023-05-07T11:28:57;97444.22;;;22.23;54.25
56719;BME280;42597;40.636;0.278;2023-05-07T11:31:26;97438.50;;;22.10;54.93
56719;BME280;42597;40.636;0.278;2023-05-07T11:33:54;97432.00;;;22.27;54.74
56719;BME280;42597;40.636;0.278;2023-05-07T11:36:21;97428.03;;;22.28;54.64
56719;BME280;42597;40.636;0.278;2023-05-07T11:38:47;97434.09;;;22.43;53.71
56719;BME280;42597;40.636;0.278;2023-05-07T11:41:13;97430.47;;;22.23;55.00
56719;BME280;42597;40.636;0.278;2023-05-07T11:43:56;97432.66;;;22.35;54.43
56719;BME280;42597;40.636;0.278;2023-05-07T11:46:22;97432.59;;;22.38;53.65
56719;BME280;42597;40.636;0.278;2023-05-07T11:48:48;97426.63;;;22.44;53.34
56719;BME280;42597;40.636;0.278;2023-05-07T11:51:18;97425.47;;;22.41;54.01
56719;BME280;42597;40.636;0.278;2023-05-07T11:53:45;97431.81;;;22.38;53.67
56719;BME280;42597;40.636;0.278;2023-05-07T11:56:12;97428.25;;;22.14;54.28
56719;BME280;42597;40.636;0.278;2023-05-07T11:58:40;97424.66;;;22.44;54.03
56719;BME280;42597;40.636;0.278;2023-05-07T12:01:11;97424.03;;;22.33;54.34
56719;BME280;42597;40.636;0.278;2023-05-07T12:03:39;97424.75;;;22.37;54.28
56719;BME280;42597;40.636;0.278;2023-05-07T12:06:08;97427.47;;;22.13;55.03
56719;BME280;42597;40.636;0.278;2023-05-07T12:08:37;97427.84;;;22.15;54.74
56719;BME280;42597;40.636;0.278;2023-05-07T12:11:07;97423.94;;;22.40;54.21
56719;BME280;42597;40.636;0.278;2023-05-07T12:13:34;97423.69;;;22.54;53.83
56719;BME280;42597;40.636;0.278;2023-05-07T12:15:59;97425.47;;;22.41;54.79
56719;BME280;42597;40.636;0.278;2023-05-07T12:18:28;97430.78;;;22.55;54.47
56719;BME280;42597;40.636;0.278;2023-05-07T12:20:55;97434.81;;;22.47;53.93
56719;BME280;42597;40.636;0.278;2023-05-07T12:23:22;97422.72;;;22.41;53.65
56719;BME280;42597;40.636;0.278;2023-05-07T12:25:48;97433.97;;;22.50;52.92
56719;BME280;42597;40.636;0.278;2023-05-07T12:28:15;97416.63;;;22.53;53.15
56719;BME280;42597;40.636;0.278;2023-05-07T12:30:46;97431.56;;;22.56;53.51
56719;BME280;42597;40.636;0.278;2023-05-07T12:33:23;97427.84;;;22.39;54.25
56719;BME280;42597;40.636;0.278;2023-05-07T12:35:49;97424.94;;;22.50;53.96
56719;BME280;42597;40.636;0.278;2023-05-07T12:38:16;97424.06;;;22.56;54.57
56719;BME280;42597;40.636;0.278;2023-05-07T12:40:47;97423.34;;;22.76;54.17
56719;BME280;42597;40.636;0.278;2023-05-07T12:43:27;97417.03;;;22.75;53.61
56719;BME280;42597;40.636;0.278;2023-05-07T12:45:58;97424.91;;;22.77;54.33
56719;BME280;42597;40.636;0.278;2023-05-07T12:48:25;97417.03;;;22.75;54.61
56719;BME280;42597;40.636;0.278;2023-05-07T12:50:56;97418.63;;;22.53;53.83
56719;BME280;42597;40.636;0.278;2023-05-07T12:53:24;97418.91;;;22.82;53.20
56719;BME280;42597;40.636;0.278;2023-05-07T12:55:53;97425.84;;;22.90;53.08
56719;BME280;42597;40.636;0.278;2023-05-07T12:58:28;97421.78;;;22.75;53.14
56719;BME280;42597;40.636;0.278;2023-05-07T13:00:58;97434.72;;;22.78;52.99
56719;BME280;42597;40.636;0.278;2023-05-07T13:03:34;97426.72;;;22.63;52.87
56719;BME280;42597;40.636;0.278;2023-05-07T13:06:06;97429.88;;;22.62;53.12
56719;BME280;42597;40.636;0.278;2023-05-07T13:08:36;97430.09;;;22.71;52.53
56719;BME280;42597;40.636;0.278;2023-05-07T13:11:03;97433.91;;;23.04;52.38
56719;BME280;42597;40.636;0.278;2023-05-07T13:13:34;97445.59;;;23.12;52.52
56719;BME280;42597;40.636;0.278;2023-05-07T13:16:03;97433.75;;;23.11;52.48